sensor_id;sensor_type;location;lat;lon;timestamp;P1;durP1;ratioP1;P2;durP2;ratioP2
2720;SDS011;1368;49.484;11.112;2022-07-22T00:00:05;16.37;;;10.97;;
2720;SDS011;1368;49.484;11.112;2022-07-22T00:02:32;18.73;;;12.60;;
2720;SDS011;1368;49.484;11.112;2022-07-22T00:04:58;14.87;;;13.30;;
2720;SDS011;1368;49.484;11.112;2022-07-22T00:07:23;17.73;;;13.30;;
2720;SDS011;1368;49.484;11.112;2022-07-22T00:09:49;16.93;;;13.50;;
2720;SDS011;1368;49.484;11.112;2022-07-22T00:12:15;15.37;;;13.53;;
2720;SDS011;1368;49.484;11.112;2022-07-22T00:14:40;15.20;;;13.07;;
2720;SDS011;1368;49.484;11.112;2022-07-22T00:17:06;14.77;;;12.93;;
2720;SDS011;1368;49.484;11.112;2022-07-22T00:19:32;14.17;;;12.77;;
2720;SDS011;1368;49.484;11.112;2022-07-22T00:21:58;14.87;;;13.33;;
2720;SDS011;1368;49.484;11.112;2022-07-22T00:24:23;15.73;;;12.97;;
2720;SDS011;1368;49.484;11.112;2022-07-22T00:26:49;15.20;;;13.03;;
2720;SDS011;1368;49.484;11.112;2022-07-22T00:29:15;14.80;;;13.03;;
2720;SDS011;1368;49.484;11.112;2022-07-22T00:31:40;15.90;;;11.57;;
2720;SDS011;1368;49.484;11.112;2022-07-22T00:34:06;15.00;;;12.47;;
2720;SDS011;1368;49.484;11.112;2022-07-22T00:36:32;14.50;;;12.57;;
2720;SDS011;1368;49.484;11.112;2022-07-22T00:38:57;14.80;;;12.50;;
2720;SDS011;1368;49.484;11.112;2022-07-22T00:41:24;16.67;;;13.40;;
2720;SDS011;1368;49.484;11.112;2022-07-22T00:44:03;13.87;;;12.33;;
2720;SDS011;1368;49.484;11.112;2022-07-22T00:46:30;15.13;;;13.63;;
2720;SDS011;1368;49.484;11.112;2022-07-22T00:48:57;13.67;;;12.17;;
2720;SDS011;1368;49.484;11.112;2022-07-22T00:51:24;16.40;;;13.90;;
2720;SDS011;1368;49.484;11.112;2022-07-22T00:53:52;15.20;;;13.70;;
2720;SDS011;1368;49.484;11.112;2022-07-22T00:56:19;17.17;;;13.77;;
2720;SDS011;1368;49.484;11.112;2022-07-22T00:58:46;15.30;;;13.70;;
2720;SDS011;1368;49.484;11.112;2022-07-22T01:01:12;17.40;;;13.83;;
2720;SDS011;1368;49.484;11.112;2022-07-22T01:03:38;16.27;;;13.53;;
2720;SDS011;1368;49.484;11.112;2022-07-22T01:06:04;14.37;;;12.80;;
2720;SDS011;1368;49.484;11.112;2022-07-22T01:08:29;15.87;;;13.70;;
2720;SDS011;1368;49.484;11.112;2022-07-22T01:11:13;15.53;;;13.93;;
2720;SDS011;1368;49.484;11.112;2022-07-22T01:13:44;16.33;;;14.63;;
2720;SDS011;1368;49.484;11.112;2022-07-22T01:16:11;15.97;;;13.80;;
2720;SDS011;1368;49.484;11.112;2022-07-22T01:18:39;15.20;;;13.60;;
2720;SDS011;1368;49.484;11.112;2022-07-22T01:21:05;15.37;;;12.70;;
2720;SDS011;1368;49.484;11.112;2022-07-22T01:23:33;14.67;;;13.07;;
2720;SDS011;1368;49.484;11.112;2022-07-22T01:25:59;16.83;;;13.50;;
2720;SDS011;1368;49.484;11.112;2022-07-22T01:28:25;14.93;;;13.33;;
2720;SDS011;1368;49.484;11.112;2022-07-22T01:30:51;15.23;;;13.63;;
2720;SDS011;1368;49.484;11.112;2022-07-22T01:33:20;14.90;;;13.37;;
2720;SDS011;1368;49.484;11.112;2022-07-22T01:35:47;14.73;;;13.20;;
2720;SDS011;1368;49.484;11.112;2022-07-22T01:38:13;13.30;;;11.90;;
2720;SDS011;1368;49.484;11.112;2022-07-22T01:40:39;15.00;;;13.40;;
2720;SDS011;1368;49.484;11.112;2022-07-22T01:43:05;16.73;;;13.77;;
2720;SDS011;1368;49.484;11.112;2022-07-22T01:45:32;16.30;;;13.87;;
2720;SDS011;1368;49.484;11.112;2022-07-22T01:47:57;15.57;;;13.63;;
2720;SDS011;1368;49.484;11.112;2022-07-22T01:50:24;18.03;;;13.50;;
2720;SDS011;1368;49.484;11.112;2022-07-22T01:52:50;16.80;;;13.30;;
2720;SDS011;1368;49.484;11.112;2022-07-22T01:55:15;16.47;;;14.50;;
2720;SDS011;1368;49.484;11.112;2022-07-22T01:57:41;14.67;;;13.07;;
2720;SDS011;1368;49.484;11.112;2022-07-22T02:00:07;14.97;;;13.50;;
2720;SDS011;1368;49.484;11.112;2022-07-22T02:02:35;14.80;;;13.20;;
2720;SDS011;1368;49.484;11.112;2022-07-22T02:05:01;14.60;;;12.83;;
2720;SDS011;1368;49.484;11.112;2022-07-22T02:07:28;15.63;;;13.93;;
2720;SDS011;1368;49.484;11.112;2022-07-22T02:09:54;16.67;;;14.87;;
2720;SDS011;1368;49.484;11.112;2022-07-22T02:12:19;16.20;;;14.30;;
2720;SDS011;1368;49.484;11.112;2022-07-22T02:14:45;15.00;;;13.40;;
2720;SDS011;1368;49.484;11.112;2022-07-22T02:17:12;18.03;;;14.37;;
2720;SDS011;1368;49.484;11.112;2022-07-22T02:19:38;16.73;;;13.73;;
2720;SDS011;1368;49.484;11.112;2022-07-22T02:22:04;15.57;;;12.87;;
2720;SDS011;1368;49.484;11.112;2022-07-22T02:24:31;15.50;;;13.23;;
2720;SDS011;1368;49.484;11.112;2022-07-22T02:26:56;16.50;;;14.73;;
2720;SDS011;1368;49.484;11.112;2022-07-22T02:29:22;14.67;;;13.10;;
2720;SDS011;1368;49.484;11.112;2022-07-22T02:31:48;18.50;;;15.23;;
2720;SDS011;1368;49.484;11.112;2022-07-22T02:34:13;15.77;;;14.10;;
2720;SDS011;1368;49.484;11.112;2022-07-22T02:36:39;18.33;;;15.73;;
2720;SDS011;1368;49.484;11.112;2022-07-22T02:39:05;15.60;;;14.03;;
2720;SDS011;1368;49.484;11.112;2022-07-22T02:41:31;14.40;;;12.90;;
2720;SDS011;1368;49.484;11.112;2022-07-22T02:43:57;17.77;;;14.30;;
2720;SDS011;1368;49.484;11.112;2022-07-22T02:46:23;15.50;;;13.90;;
2720;SDS011;1368;49.484;11.112;2022-07-22T02:48:49;16.57;;;15.00;;
2720;SDS011;1368;49.484;11.112;2022-07-22T02:51:15;16.23;;;14.50;;
2720;SDS011;1368;49.484;11.112;2022-07-22T02:53:40;17.23;;;15.43;;
2720;SDS011;1368;49.484;11.112;2022-07-22T02:56:07;14.67;;;13.20;;
2720;SDS011;1368;49.484;11.112;2022-07-22T02:58:33;16.60;;;14.87;;
2720;SDS011;1368;49.484;11.112;2022-07-22T03:00:58;18.13;;;15.93;;
2720;SDS011;1368;49.484;11.112;2022-07-22T03:03:24;19.50;;;15.80;;
2720;SDS011;1368;49.484;11.112;2022-07-22T03:05:50;22.47;;;16.87;;
2720;SDS011;1368;49.484;11.112;2022-07-22T03:08:15;19.20;;;15.33;;
2720;SDS011;1368;49.484;11.112;2022-07-22T03:10:41;17.43;;;15.50;;
2720;SDS011;1368;49.484;11.112;2022-07-22T03:13:07;16.37;;;14.70;;
2720;SDS011;1368;49.484;11.112;2022-07-22T03:15:32;16.37;;;14.50;;
2720;SDS011;1368;49.484;11.112;2022-07-22T03:17:58;16.03;;;14.40;;
2720;SDS011;1368;49.484;11.112;2022-07-22T03:20:24;19.73;;;16.30;;
2720;SDS011;1368;49.484;11.112;2022-07-22T03:22:49;17.33;;;14.60;;
2720;SDS011;1368;49.484;11.112;2022-07-22T03:25:15;17.70;;;15.93;;
2720;SDS011;1368;49.484;11.112;2022-07-22T03:27:40;15.73;;;14.10;;
2720;SDS011;1368;49.484;11.112;2022-07-22T03:30:06;16.73;;;14.87;;
2720;SDS011;1368;49.484;11.112;2022-07-22T03:32:32;21.20;;;15.47;;
2720;SDS011;1368;49.484;11.112;2022-07-22T03:34:58;17.60;;;15.70;;
2720;SDS011;1368;49.484;11.112;2022-07-22T03:37:23;18.50;;;15.77;;
2720;SDS011;1368;49.484;11.112;2022-07-22T03:39:49;17.37;;;14.73;;
2720;SDS011;1368;49.484;11.112;2022-07-22T03:42:15;18.97;;;15.90;;
2720;SDS011;1368;49.484;11.112;2022-07-22T03:44:40;16.90;;;15.17;;
2720;SDS011;1368;49.484;11.112;2022-07-22T03:47:06;17.10;;;15.40;;
2720;SDS011;1368;49.484;11.112;2022-07-22T03:49:32;17.90;;;16.10;;
2720;SDS011;1368;49.484;11.112;2022-07-22T03:51:58;16.37;;;14.30;;
2720;SDS011;1368;49.484;11.112;2022-07-22T03:54:23;17.13;;;14.67;;
2720;SDS011;1368;49.484;11.112;2022-07-22T03:56:49;15.47;;;13.57;;
2720;SDS011;1368;49.484;11.112;2022-07-22T03:59:15;18.17;;;16.27;;
2720;SDS011;1368;49.484;11.112;2022-07-22T04:01:41;15.37;;;13.77;;
2720;SDS011;1368;49.484;11.112;2022-07-22T04:04:07;16.30;;;14.70;;
2720;SDS011;1368;49.484;11.112;2022-07-22T04:06:33;18.17;;;16.23;;
2720;SDS011;1368;49.484;11.112;2022-07-22T04:08:59;17.90;;;14.93;;
2720;SDS011;1368;49.484;11.112;2022-07-22T04:11:25;17.03;;;15.40;;
2720;SDS011;1368;49.484;11.112;2022-07-22T04:13:51;16.33;;;14.70;;
2720;SDS011;1368;49.484;11.112;2022-07-22T04:16:17;16.10;;;14.40;;
2720;SDS011;1368;49.484;11.112;2022-07-22T04:18:43;17.73;;;14.03;;
2720;SDS011;1368;49.484;11.112;2022-07-22T04:21:08;15.33;;;13.83;;
2720;SDS011;1368;49.484;11.112;2022-07-22T04:23:34;17.03;;;15.20;;
2720;SDS011;1368;49.484;11.112;2022-07-22T04:26:00;16.47;;;14.63;;
2720;SDS011;1368;49.484;11.112;2022-07-22T04:28:26;15.87;;;14.30;;
2720;SDS011;1368;49.484;11.112;2022-07-22T04:30:51;17.93;;;13.40;;
2720;SDS011;1368;49.484;11.112;2022-07-22T04:33:17;15.90;;;14.30;;
2720;SDS011;1368;49.484;11.112;2022-07-22T04:35:42;16.40;;;14.80;;
2720;SDS011;1368;49.484;11.112;2022-07-22T04:38:08;16.30;;;14.30;;
2720;SDS011;1368;49.484;11.112;2022-07-22T04:40:34;15.77;;;14.27;;
2720;SDS011;1368;49.484;11.112;2022-07-22T04:43:00;15.50;;;13.90;;
2720;SDS011;1368;49.484;11.112;2022-07-22T04:45:25;15.47;;;13.97;;
2720;SDS011;1368;49.484;11.112;2022-07-22T04:47:51;16.10;;;14.60;;
2720;SDS011;1368;49.484;11.112;2022-07-22T04:50:17;16.50;;;14.97;;
2720;SDS011;1368;49.484;11.112;2022-07-22T04:52:43;16.50;;;14.90;;
2720;SDS011;1368;49.484;11.112;2022-07-22T04:55:08;20.73;;;15.33;;
2720;SDS011;1368;49.484;11.112;2022-07-22T04:57:34;15.73;;;14.13;;
2720;SDS011;1368;49.484;11.112;2022-07-22T04:59:59;15.67;;;14.07;;
2720;SDS011;1368;49.484;11.112;2022-07-22T05:02:25;15.43;;;14.03;;
2720;SDS011;1368;49.484;11.112;2022-07-22T05:04:51;14.17;;;12.87;;
2720;SDS011;1368;49.484;11.112;2022-07-22T05:07:16;17.47;;;12.73;;
2720;SDS011;1368;49.484;11.112;2022-07-22T05:09:42;16.03;;;14.33;;
2720;SDS011;1368;49.484;11.112;2022-07-22T05:12:07;18.73;;;16.93;;
2720;SDS011;1368;49.484;11.112;2022-07-22T05:14:33;18.20;;;15.97;;
2720;SDS011;1368;49.484;11.112;2022-07-22T05:16:59;15.77;;;14.37;;
2720;SDS011;1368;49.484;11.112;2022-07-22T05:19:25;17.13;;;14.47;;
2720;SDS011;1368;49.484;11.112;2022-07-22T05:21:50;17.57;;;15.67;;
2720;SDS011;1368;49.484;11.112;2022-07-22T05:24:16;17.63;;;15.90;;
2720;SDS011;1368;49.484;11.112;2022-07-22T05:26:42;16.20;;;14.70;;
2720;SDS011;1368;49.484;11.112;2022-07-22T05:29:08;16.40;;;14.70;;
2720;SDS011;1368;49.484;11.112;2022-07-22T05:31:33;15.27;;;13.97;;
2720;SDS011;1368;49.484;11.112;2022-07-22T05:33:59;15.60;;;13.93;;
2720;SDS011;1368;49.484;11.112;2022-07-22T05:36:25;17.30;;;14.87;;
2720;SDS011;1368;49.484;11.112;2022-07-22T05:38:50;18.30;;;14.57;;
2720;SDS011;1368;49.484;11.112;2022-07-22T05:41:16;15.87;;;14.37;;
2720;SDS011;1368;49.484;11.112;2022-07-22T05:43:42;17.37;;;15.77;;
2720;SDS011;1368;49.484;11.112;2022-07-22T05:46:08;14.90;;;13.40;;
2720;SDS011;1368;49.484;11.112;2022-07-22T05:48:34;15.70;;;14.10;;
2720;SDS011;1368;49.484;11.112;2022-07-22T05:51:00;14.40;;;13.00;;
2720;SDS011;1368;49.484;11.112;2022-07-22T05:53:26;15.90;;;12.93;;
2720;SDS011;1368;49.484;11.112;2022-07-22T05:55:51;15.67;;;14.10;;
2720;SDS011;1368;49.484;11.112;2022-07-22T05:58:17;12.27;;;11.17;;
2720;SDS011;1368;49.484;11.112;2022-07-22T06:00:42;14.80;;;13.50;;
2720;SDS011;1368;49.484;11.112;2022-07-22T06:03:08;13.67;;;11.80;;
2720;SDS011;1368;49.484;11.112;2022-07-22T06:05:34;13.33;;;12.13;;
2720;SDS011;1368;49.484;11.112;2022-07-22T06:08:02;10.77;;;9.70;;
2720;SDS011;1368;49.484;11.112;2022-07-22T06:10:28;11.40;;;10.23;;
2720;SDS011;1368;49.484;11.112;2022-07-22T06:12:54;12.67;;;10.40;;
2720;SDS011;1368;49.484;11.112;2022-07-22T06:15:20;11.80;;;9.73;;
2720;SDS011;1368;49.484;11.112;2022-07-22T06:17:45;11.67;;;9.53;;
2720;SDS011;1368;49.484;11.112;2022-07-22T06:20:11;9.87;;;8.93;;
2720;SDS011;1368;49.484;11.112;2022-07-22T06:22:39;12.07;;;10.43;;
2720;SDS011;1368;49.484;11.112;2022-07-22T06:25:05;9.63;;;8.67;;
2720;SDS011;1368;49.484;11.112;2022-07-22T06:27:31;10.27;;;9.27;;
2720;SDS011;1368;49.484;11.112;2022-07-22T06:29:56;9.47;;;8.53;;
2720;SDS011;1368;49.484;11.112;2022-07-22T06:32:22;10.93;;;9.93;;
2720;SDS011;1368;49.484;11.112;2022-07-22T06:34:47;9.50;;;8.63;;
2720;SDS011;1368;49.484;11.112;2022-07-22T06:37:13;10.40;;;9.50;;
2720;SDS011;1368;49.484;11.112;2022-07-22T06:39:39;10.00;;;9.00;;
2720;SDS011;1368;49.484;11.112;2022-07-22T06:42:04;10.53;;;9.43;;
2720;SDS011;1368;49.484;11.112;2022-07-22T06:44:30;10.13;;;9.13;;
2720;SDS011;1368;49.484;11.112;2022-07-22T06:46:56;10.63;;;9.73;;
2720;SDS011;1368;49.484;11.112;2022-07-22T06:49:21;10.77;;;9.67;;
2720;SDS011;1368;49.484;11.112;2022-07-22T06:51:47;11.57;;;10.57;;
2720;SDS011;1368;49.484;11.112;2022-07-22T06:54:12;9.67;;;8.77;;
2720;SDS011;1368;49.484;11.112;2022-07-22T06:56:38;10.83;;;9.80;;
2720;SDS011;1368;49.484;11.112;2022-07-22T06:59:04;10.13;;;9.20;;
2720;SDS011;1368;49.484;11.112;2022-07-22T07:01:29;10.70;;;9.60;;
2720;SDS011;1368;49.484;11.112;2022-07-22T07:03:55;9.87;;;9.00;;
2720;SDS011;1368;49.484;11.112;2022-07-22T07:08:56;11.57;;;10.47;;
2720;SDS011;1368;49.484;11.112;2022-07-22T07:11:22;12.50;;;10.87;;
2720;SDS011;1368;49.484;11.112;2022-07-22T07:13:48;9.77;;;8.83;;
2720;SDS011;1368;49.484;11.112;2022-07-22T07:16:14;11.97;;;10.77;;
2720;SDS011;1368;49.484;11.112;2022-07-22T07:18:39;12.10;;;10.90;;
2720;SDS011;1368;49.484;11.112;2022-07-22T07:21:05;11.73;;;10.53;;
2720;SDS011;1368;49.484;11.112;2022-07-22T07:23:31;9.63;;;8.70;;
2720;SDS011;1368;49.484;11.112;2022-07-22T07:25:56;10.40;;;9.47;;
2720;SDS011;1368;49.484;11.112;2022-07-22T07:28:22;11.70;;;9.97;;
2720;SDS011;1368;49.484;11.112;2022-07-22T07:30:47;10.37;;;9.37;;
2720;SDS011;1368;49.484;11.112;2022-07-22T07:33:14;8.90;;;8.07;;
2720;SDS011;1368;49.484;11.112;2022-07-22T07:35:39;9.87;;;9.07;;
2720;SDS011;1368;49.484;11.112;2022-07-22T07:38:05;9.60;;;8.70;;
2720;SDS011;1368;49.484;11.112;2022-07-22T07:40:31;12.03;;;9.10;;
2720;SDS011;1368;49.484;11.112;2022-07-22T07:42:56;9.93;;;9.00;;
2720;SDS011;1368;49.484;11.112;2022-07-22T07:45:22;9.70;;;8.80;;
2720;SDS011;1368;49.484;11.112;2022-07-22T07:47:48;9.10;;;8.23;;
2720;SDS011;1368;49.484;11.112;2022-07-22T07:50:14;10.27;;;9.30;;
2720;SDS011;1368;49.484;11.112;2022-07-22T07:52:41;10.50;;;8.80;;
2720;SDS011;1368;49.484;11.112;2022-07-22T07:55:08;9.50;;;8.60;;
2720;SDS011;1368;49.484;11.112;2022-07-22T07:57:35;11.00;;;10.00;;
2720;SDS011;1368;49.484;11.112;2022-07-22T08:00:03;9.43;;;8.63;;
2720;SDS011;1368;49.484;11.112;2022-07-22T08:02:30;12.07;;;10.87;;
2720;SDS011;1368;49.484;11.112;2022-07-22T08:04:56;11.30;;;9.57;;
2720;SDS011;1368;49.484;11.112;2022-07-22T08:07:21;12.73;;;10.77;;
2720;SDS011;1368;49.484;11.112;2022-07-22T08:09:47;10.63;;;9.63;;
2720;SDS011;1368;49.484;11.112;2022-07-22T08:12:13;10.10;;;9.10;;
2720;SDS011;1368;49.484;11.112;2022-07-22T08:14:38;10.97;;;9.87;;
2720;SDS011;1368;49.484;11.112;2022-07-22T08:17:04;9.80;;;9.00;;
2720;SDS011;1368;49.484;11.112;2022-07-22T08:19:29;10.17;;;9.00;;
2720;SDS011;1368;49.484;11.112;2022-07-22T08:21:55;9.63;;;8.83;;
2720;SDS011;1368;49.484;11.112;2022-07-22T08:24:21;10.87;;;9.80;;
2720;SDS011;1368;49.484;11.112;2022-07-22T08:26:46;11.43;;;10.23;;
2720;SDS011;1368;49.484;11.112;2022-07-22T08:29:12;10.90;;;9.73;;
2720;SDS011;1368;49.484;11.112;2022-07-22T08:31:37;10.50;;;9.40;;
2720;SDS011;1368;49.484;11.112;2022-07-22T08:34:03;10.67;;;9.23;;
2720;SDS011;1368;49.484;11.112;2022-07-22T08:36:30;11.17;;;10.10;;
2720;SDS011;1368;49.484;11.112;2022-07-22T08:38:56;11.67;;;9.23;;
2720;SDS011;1368;49.484;11.112;2022-07-22T08:41:22;11.27;;;8.80;;
2720;SDS011;1368;49.484;11.112;2022-07-22T08:43:57;10.63;;;9.63;;
2720;SDS011;1368;49.484;11.112;2022-07-22T08:46:23;10.90;;;9.20;;
2720;SDS011;1368;49.484;11.112;2022-07-22T08:48:49;10.93;;;9.83;;
2720;SDS011;1368;49.484;11.112;2022-07-22T08:51:15;11.33;;;9.80;;
2720;SDS011;1368;49.484;11.112;2022-07-22T08:53:41;9.13;;;8.23;;
2720;SDS011;1368;49.484;11.112;2022-07-22T08:56:06;8.83;;;8.03;;
2720;SDS011;1368;49.484;11.112;2022-07-22T08:58:32;9.43;;;8.53;;
2720;SDS011;1368;49.484;11.112;2022-07-22T09:01:05;10.67;;;9.43;;
2720;SDS011;1368;49.484;11.112;2022-07-22T09:03:43;11.50;;;8.50;;
2720;SDS011;1368;49.484;11.112;2022-07-22T09:06:28;10.77;;;8.67;;
2720;SDS011;1368;49.484;11.112;2022-07-22T09:09:04;11.93;;;9.10;;
2720;SDS011;1368;49.484;11.112;2022-07-22T09:11:31;8.93;;;8.03;;
2720;SDS011;1368;49.484;11.112;2022-07-22T09:14:00;8.80;;;8.00;;
2720;SDS011;1368;49.484;11.112;2022-07-22T09:16:45;10.30;;;8.90;;
2720;SDS011;1368;49.484;11.112;2022-07-22T09:19:13;8.90;;;8.00;;
2720;SDS011;1368;49.484;11.112;2022-07-22T09:21:40;10.03;;;9.10;;
2720;SDS011;1368;49.484;11.112;2022-07-22T09:24:07;10.43;;;9.43;;
2720;SDS011;1368;49.484;11.112;2022-07-22T09:26:37;9.03;;;8.13;;
2720;SDS011;1368;49.484;11.112;2022-07-22T09:29:05;11.50;;;9.40;;
2720;SDS011;1368;49.484;11.112;2022-07-22T09:31:32;10.50;;;8.63;;
2720;SDS011;1368;49.484;11.112;2022-07-22T09:33:59;10.50;;;9.47;;
2720;SDS011;1368;49.484;11.112;2022-07-22T09:36:26;15.47;;;8.13;;
2720;SDS011;1368;49.484;11.112;2022-07-22T09:38:52;10.00;;;7.57;;
2720;SDS011;1368;49.484;11.112;2022-07-22T09:41:18;9.67;;;8.80;;
2720;SDS011;1368;49.484;11.112;2022-07-22T09:43:44;10.13;;;9.00;;
2720;SDS011;1368;49.484;11.112;2022-07-22T09:46:10;10.40;;;7.73;;
2720;SDS011;1368;49.484;11.112;2022-07-22T09:48:37;8.57;;;7.60;;
2720;SDS011;1368;49.484;11.112;2022-07-22T09:51:03;9.87;;;8.70;;
2720;SDS011;1368;49.484;11.112;2022-07-22T09:53:30;12.77;;;8.10;;
2720;SDS011;1368;49.484;11.112;2022-07-22T09:55:57;10.17;;;7.50;;
2720;SDS011;1368;49.484;11.112;2022-07-22T09:58:24;8.30;;;7.50;;
2720;SDS011;1368;49.484;11.112;2022-07-22T10:00:51;10.90;;;8.03;;
2720;SDS011;1368;49.484;11.112;2022-07-22T10:03:23;10.90;;;7.70;;
2720;SDS011;1368;49.484;11.112;2022-07-22T10:05:54;10.63;;;8.23;;
2720;SDS011;1368;49.484;11.112;2022-07-22T10:08:22;9.27;;;8.37;;
2720;SDS011;1368;49.484;11.112;2022-07-22T10:10:52;12.23;;;8.10;;
2720;SDS011;1368;49.484;11.112;2022-07-22T10:13:19;8.50;;;7.23;;
2720;SDS011;1368;49.484;11.112;2022-07-22T10:15:44;8.77;;;7.97;;
2720;SDS011;1368;49.484;11.112;2022-07-22T10:18:16;8.50;;;6.83;;
2720;SDS011;1368;49.484;11.112;2022-07-22T10:20:43;8.40;;;7.50;;
2720;SDS011;1368;49.484;11.112;2022-07-22T10:23:09;10.23;;;9.23;;
2720;SDS011;1368;49.484;11.112;2022-07-22T10:26:18;8.63;;;7.70;;
2720;SDS011;1368;49.484;11.112;2022-07-22T10:28:27;11.93;;;8.53;;
2720;SDS011;1368;49.484;11.112;2022-07-22T10:33:43;10.40;;;8.50;;
2720;SDS011;1368;49.484;11.112;2022-07-22T10:36:10;11.57;;;8.63;;
2720;SDS011;1368;49.484;11.112;2022-07-22T10:38:36;10.47;;;9.47;;
2720;SDS011;1368;49.484;11.112;2022-07-22T10:41:03;12.10;;;8.53;;
2720;SDS011;1368;49.484;11.112;2022-07-22T10:43:52;9.30;;;8.43;;
2720;SDS011;1368;49.484;11.112;2022-07-22T10:46:17;10.57;;;9.47;;
2720;SDS011;1368;49.484;11.112;2022-07-22T10:51:14;10.37;;;8.20;;
2720;SDS011;1368;49.484;11.112;2022-07-22T10:58:48;10.90;;;9.77;;
2720;SDS011;1368;49.484;11.112;2022-07-22T11:01:17;11.50;;;10.30;;
2720;SDS011;1368;49.484;11.112;2022-07-22T11:03:45;10.43;;;9.23;;
2720;SDS011;1368;49.484;11.112;2022-07-22T11:06:22;12.30;;;9.80;;
2720;SDS011;1368;49.484;11.112;2022-07-22T11:08:59;9.93;;;8.77;;
2720;SDS011;1368;49.484;11.112;2022-07-22T11:14:11;9.50;;;8.60;;
2720;SDS011;1368;49.484;11.112;2022-07-22T11:16:41;9.20;;;8.30;;
2720;SDS011;1368;49.484;11.112;2022-07-22T11:19:08;14.93;;;9.27;;
2720;SDS011;1368;49.484;11.112;2022-07-22T11:21:34;11.57;;;10.20;;
2720;SDS011;1368;49.484;11.112;2022-07-22T11:24:00;9.73;;;8.83;;
2720;SDS011;1368;49.484;11.112;2022-07-22T11:26:33;10.60;;;9.60;;
2720;SDS011;1368;49.484;11.112;2022-07-22T11:29:08;9.43;;;7.90;;
2720;SDS011;1368;49.484;11.112;2022-07-22T11:31:34;11.23;;;9.87;;
2720;SDS011;1368;49.484;11.112;2022-07-22T11:34:08;9.67;;;8.33;;
2720;SDS011;1368;49.484;11.112;2022-07-22T11:36:39;11.40;;;9.17;;
2720;SDS011;1368;49.484;11.112;2022-07-22T11:39:07;9.00;;;8.20;;
2720;SDS011;1368;49.484;11.112;2022-07-22T11:41:34;12.73;;;9.17;;
2720;SDS011;1368;49.484;11.112;2022-07-22T11:44:00;12.47;;;10.07;;
2720;SDS011;1368;49.484;11.112;2022-07-22T11:46:27;9.47;;;8.50;;
2720;SDS011;1368;49.484;11.112;2022-07-22T11:48:53;9.97;;;8.73;;
2720;SDS011;1368;49.484;11.112;2022-07-22T11:51:26;10.90;;;8.30;;
2720;SDS011;1368;49.484;11.112;2022-07-22T11:53:54;10.93;;;9.90;;
2720;SDS011;1368;49.484;11.112;2022-07-22T11:56:19;10.83;;;9.73;;
2720;SDS011;1368;49.484;11.112;2022-07-22T11:58:46;10.63;;;9.50;;
2720;SDS011;1368;49.484;11.112;2022-07-22T12:01:15;10.00;;;9.00;;
2720;SDS011;1368;49.484;11.112;2022-07-22T12:03:45;12.83;;;10.43;;
2720;SDS011;1368;49.484;11.112;2022-07-22T12:06:17;11.43;;;10.30;;
2720;SDS011;1368;49.484;11.112;2022-07-22T12:08:48;9.63;;;8.60;;
2720;SDS011;1368;49.484;11.112;2022-07-22T12:11:18;11.70;;;10.37;;
2720;SDS011;1368;49.484;11.112;2022-07-22T12:13:47;9.90;;;8.97;;
2720;SDS011;1368;49.484;11.112;2022-07-22T12:18:43;9.90;;;8.63;;
2720;SDS011;1368;49.484;11.112;2022-07-22T12:21:09;10.00;;;8.93;;
2720;SDS011;1368;49.484;11.112;2022-07-22T12:23:34;10.20;;;9.30;;
2720;SDS011;1368;49.484;11.112;2022-07-22T12:26:00;10.67;;;9.23;;
2720;SDS011;1368;49.484;11.112;2022-07-22T12:28:27;9.53;;;8.60;;
2720;SDS011;1368;49.484;11.112;2022-07-22T12:30:53;13.20;;;10.43;;
2720;SDS011;1368;49.484;11.112;2022-07-22T12:33:21;14.70;;;8.70;;
2720;SDS011;1368;49.484;11.112;2022-07-22T12:38:30;11.13;;;9.40;;
2720;SDS011;1368;49.484;11.112;2022-07-22T12:40:56;12.00;;;8.83;;
2720;SDS011;1368;49.484;11.112;2022-07-22T12:43:25;10.10;;;8.20;;
2720;SDS011;1368;49.484;11.112;2022-07-22T12:45:51;13.03;;;9.10;;
2720;SDS011;1368;49.484;11.112;2022-07-22T12:48:17;9.30;;;8.33;;
2720;SDS011;1368;49.484;11.112;2022-07-22T12:50:44;10.73;;;7.97;;
2720;SDS011;1368;49.484;11.112;2022-07-22T12:53:23;8.60;;;7.80;;
2720;SDS011;1368;49.484;11.112;2022-07-22T12:55:52;9.00;;;8.10;;
2720;SDS011;1368;49.484;11.112;2022-07-22T12:58:29;10.47;;;9.47;;
2720;SDS011;1368;49.484;11.112;2022-07-22T13:00:57;10.10;;;9.10;;
2720;SDS011;1368;49.484;11.112;2022-07-22T13:03:25;9.80;;;8.70;;
2720;SDS011;1368;49.484;11.112;2022-07-22T13:05:52;10.20;;;8.57;;
2720;SDS011;1368;49.484;11.112;2022-07-22T13:08:19;9.67;;;8.10;;
2720;SDS011;1368;49.484;11.112;2022-07-22T13:10:45;10.13;;;9.13;;
2720;SDS011;1368;49.484;11.112;2022-07-22T13:13:10;9.40;;;8.50;;
2720;SDS011;1368;49.484;11.112;2022-07-22T13:15:36;9.20;;;8.40;;
2720;SDS011;1368;49.484;11.112;2022-07-22T13:18:02;10.10;;;9.10;;
2720;SDS011;1368;49.484;11.112;2022-07-22T13:20:29;9.07;;;8.17;;
2720;SDS011;1368;49.484;11.112;2022-07-22T13:22:54;10.43;;;9.43;;
2720;SDS011;1368;49.484;11.112;2022-07-22T13:25:20;9.53;;;8.47;;
2720;SDS011;1368;49.484;11.112;2022-07-22T13:27:46;9.97;;;8.97;;
2720;SDS011;1368;49.484;11.112;2022-07-22T13:30:11;9.30;;;8.40;;
2720;SDS011;1368;49.484;11.112;2022-07-22T13:32:38;8.20;;;7.50;;
2720;SDS011;1368;49.484;11.112;2022-07-22T13:35:03;9.00;;;8.10;;
2720;SDS011;1368;49.484;11.112;2022-07-22T13:37:29;8.87;;;7.97;;
2720;SDS011;1368;49.484;11.112;2022-07-22T13:39:55;9.20;;;8.20;;
2720;SDS011;1368;49.484;11.112;2022-07-22T13:42:21;9.20;;;8.30;;
2720;SDS011;1368;49.484;11.112;2022-07-22T13:44:47;12.90;;;8.20;;
2720;SDS011;1368;49.484;11.112;2022-07-22T13:47:13;10.50;;;8.40;;
2720;SDS011;1368;49.484;11.112;2022-07-22T13:49:39;9.50;;;8.50;;
2720;SDS011;1368;49.484;11.112;2022-07-22T13:52:05;10.10;;;8.93;;
2720;SDS011;1368;49.484;11.112;2022-07-22T13:54:31;11.90;;;8.77;;
2720;SDS011;1368;49.484;11.112;2022-07-22T13:57:01;9.40;;;7.83;;
2720;SDS011;1368;49.484;11.112;2022-07-22T13:59:29;11.03;;;8.17;;
2720;SDS011;1368;49.484;11.112;2022-07-22T14:01:55;11.50;;;7.83;;
2720;SDS011;1368;49.484;11.112;2022-07-22T14:04:21;13.73;;;8.60;;
2720;SDS011;1368;49.484;11.112;2022-07-22T14:06:47;10.23;;;8.70;;
2720;SDS011;1368;49.484;11.112;2022-07-22T14:09:12;12.87;;;8.80;;
2720;SDS011;1368;49.484;11.112;2022-07-22T14:11:38;9.23;;;8.37;;
2720;SDS011;1368;49.484;11.112;2022-07-22T14:14:03;8.63;;;7.80;;
2720;SDS011;1368;49.484;11.112;2022-07-22T14:16:31;10.40;;;8.20;;
2720;SDS011;1368;49.484;11.112;2022-07-22T14:19:10;11.63;;;8.27;;
2720;SDS011;1368;49.484;11.112;2022-07-22T14:21:39;10.20;;;8.63;;
2720;SDS011;1368;49.484;11.112;2022-07-22T14:24:07;9.37;;;8.47;;
2720;SDS011;1368;49.484;11.112;2022-07-22T14:26:33;9.63;;;8.53;;
2720;SDS011;1368;49.484;11.112;2022-07-22T14:29:00;8.93;;;8.03;;
2720;SDS011;1368;49.484;11.112;2022-07-22T14:31:26;10.70;;;7.90;;
2720;SDS011;1368;49.484;11.112;2022-07-22T14:33:53;9.77;;;8.00;;
2720;SDS011;1368;49.484;11.112;2022-07-22T14:36:19;10.20;;;8.40;;
2720;SDS011;1368;49.484;11.112;2022-07-22T14:38:45;8.80;;;7.90;;
2720;SDS011;1368;49.484;11.112;2022-07-22T14:41:11;11.90;;;8.40;;
2720;SDS011;1368;49.484;11.112;2022-07-22T14:43:37;8.70;;;7.90;;
2720;SDS011;1368;49.484;11.112;2022-07-22T14:46:03;9.93;;;8.93;;
2720;SDS011;1368;49.484;11.112;2022-07-22T14:48:29;10.47;;;8.43;;
2720;SDS011;1368;49.484;11.112;2022-07-22T14:50:55;8.90;;;7.80;;
2720;SDS011;1368;49.484;11.112;2022-07-22T14:53:21;9.40;;;8.50;;
2720;SDS011;1368;49.484;11.112;2022-07-22T14:55:47;10.23;;;8.47;;
2720;SDS011;1368;49.484;11.112;2022-07-22T14:58:12;10.67;;;9.10;;
2720;SDS011;1368;49.484;11.112;2022-07-22T15:00:38;9.73;;;8.40;;